Plum Branch, SC (29845)

6:52 PM EDT on August 31, 2016 (GMT -0400)
Plum Branch Yacht Club | | Change Station

Elev 354 ft 33.81 °N, 82.31 °W | Updated 5 seconds ago

Scattered Clouds
Scattered Clouds
86.5 °F
Feels Like 92 °F
N
2.0
Wind Variable Wind from ESE
Gusts 10.0 mph

Today
High -- | Low -- °F
--% Chance of Precip.
Yesterday
High -- | Low -- °F
Precip. -- in
Pressure 29.93 in
Visibility 10.0 miles
Clouds Scattered Clouds 8000 ft
Heat Index 92 °F
Dew Point 72 °F
Humidity 61%
Rainfall 0.02 in
Snow Depth Not available.
7:02 AM 7:55 PM
Waning Crescent, 0% visible
METAR KHQU 312235Z AUTO 00000KT 10SM SCT080 31/23 A2993 RMK AO1 T03090230
Pressure 29.93 in
Visibility 10.0 miles
Clouds Scattered Clouds 8000 ft
Heat Index 92 °F
Dew Point 72 °F
Humidity 61%
Rainfall 0.02 in
Snow Depth Not available.
7:02 AM 7:55 PM
Waning Crescent, 0% visible
METAR KHQU 312235Z AUTO 00000KT 10SM SCT080 31/23 A2993 RMK AO1 T03090230

10-Day Weather Forecast

Almanac

Astronomy

Aug. 31, 2016 Rise Set
Actual Time
Civil Twilight
Nautical Twilight
Astronomical Twilight
Moon
Length of Visible Light
Length of Day
Tomorrow will be .
, % of the Moon is Illuminated

Today's Extremes

State Highs State Lows

Community

WunderPhotos

Upload Photos

1,936,204 photos uploaded!

WunderBlog® & News

Nearby

Air Quality

  Air Quality AQ Index Pollutant
Not available.

Snow Depth

Station Depth Elevation

Earthquake Activity

City Distance Mag. Time & Date
Minimum magnitude displayed is 2.5.

Coastal Water Temperatures

Place Temperature

Stations

Nearby Weather Stations

Station Location Temp. Windchill Dew Point Humidity Wind Precip. Elev Updated Type
                   

Watches & Warnings

There are currently no watches in effect.